createdAt,value
2022-11-16T00:00:44.788Z,71.18
2022-11-16T00:03:11.086Z,71.12
2022-11-16T00:05:37.346Z,71.14
2022-11-16T00:08:03.613Z,71.22
2022-11-16T00:10:29.880Z,71.51
2022-11-16T00:12:56.156Z,70.96
2022-11-16T00:15:22.407Z,70.88
2022-11-16T00:17:48.653Z,71.43
2022-11-16T00:20:14.904Z,70.83
2022-11-16T00:22:41.153Z,70.48
2022-11-16T00:25:07.403Z,71.50
2022-11-16T00:27:33.678Z,71.12
2022-11-16T00:29:59.936Z,70.66
2022-11-16T00:32:26.179Z,70.98
2022-11-16T00:34:52.465Z,71.19
2022-11-16T00:37:18.693Z,70.46
2022-11-16T00:39:44.939Z,70.46
2022-11-16T00:42:11.171Z,71.23
2022-11-16T00:44:37.399Z,71.12
2022-11-16T00:47:03.647Z,71.37
2022-11-16T00:49:29.889Z,71.42
2022-11-16T00:51:56.162Z,70.81
2022-11-16T00:54:22.458Z,70.74
2022-11-16T00:56:48.689Z,71.20
2022-11-16T00:59:14.933Z,71.06
2022-11-16T01:01:41.209Z,70.78
2022-11-16T01:04:07.515Z,70.57
2022-11-16T01:06:33.748Z,70.68
2022-11-16T01:08:59.987Z,70.97
2022-11-16T01:11:26.236Z,71.38
2022-11-16T01:13:52.483Z,71.21
2022-11-16T01:16:18.741Z,71.10
2022-11-16T01:18:44.992Z,71.70
2022-11-16T01:21:11.232Z,70.77
2022-11-16T01:23:37.493Z,70.90
2022-11-16T01:26:03.733Z,71.30
2022-11-16T01:28:30.132Z,71.51
2022-11-16T01:30:56.528Z,71.36
2022-11-16T01:33:22.762Z,71.57
2022-11-16T01:35:48.999Z,70.97
2022-11-16T01:38:15.247Z,71.36
2022-11-16T01:40:41.495Z,70.95
2022-11-16T01:43:07.753Z,71.85
2022-11-16T01:45:33.988Z,71.43
2022-11-16T01:48:00.265Z,71.24
2022-11-16T01:50:26.548Z,71.12
2022-11-16T01:52:52.910Z,71.04
2022-11-16T01:55:19.151Z,70.81
2022-11-16T01:57:45.375Z,70.62
2022-11-16T02:00:11.644Z,71.60
2022-11-16T02:02:37.880Z,71.20
2022-11-16T02:05:04.114Z,71.12
2022-11-16T02:07:30.445Z,70.84
2022-11-16T02:09:56.742Z,70.91
2022-11-16T02:12:22.987Z,70.47
2022-11-16T02:14:49.223Z,70.75
2022-11-16T02:17:15.457Z,71.33
2022-11-16T02:19:41.704Z,70.93
2022-11-16T02:22:08.004Z,71.12
2022-11-16T02:24:34.299Z,71.74
2022-11-16T02:27:00.540Z,71.26
2022-11-16T02:29:26.804Z,71.60
2022-11-16T02:31:53.060Z,71.19
2022-11-16T02:34:19.316Z,71.47
2022-11-16T02:36:45.572Z,70.88
2022-11-16T02:39:11.851Z,71.34
2022-11-16T02:41:38.091Z,71.28
2022-11-16T02:44:04.354Z,70.71
2022-11-16T02:46:30.612Z,71.10
2022-11-16T02:48:56.855Z,71.14
2022-11-16T02:51:23.095Z,71.08
2022-11-16T02:53:49.403Z,71.04
2022-11-16T02:56:15.656Z,70.51
2022-11-16T02:58:41.928Z,70.70
2022-11-16T03:01:08.217Z,70.71
2022-11-16T03:03:34.535Z,71.11
2022-11-16T03:06:00.788Z,71.30
2022-11-16T03:08:27.047Z,71.46
2022-11-16T03:10:53.312Z,70.92
2022-11-16T03:13:19.556Z,69.97
2022-11-16T03:15:45.812Z,70.14
2022-11-16T03:18:12.054Z,70.68
2022-11-16T03:20:38.301Z,70.09
2022-11-16T03:23:04.543Z,70.24
2022-11-16T03:25:30.803Z,69.40
2022-11-16T03:27:57.081Z,70.04
2022-11-16T03:30:24.045Z,69.62
2022-11-16T03:32:50.421Z,70.16
2022-11-16T03:35:16.761Z,69.55
2022-11-16T03:37:43.008Z,69.35
2022-11-16T03:40:09.234Z,69.64
2022-11-16T03:42:35.498Z,69.49
2022-11-16T03:45:01.746Z,69.26
2022-11-16T03:47:27.999Z,69.88
2022-11-16T03:49:54.251Z,68.85
2022-11-16T03:52:20.522Z,68.73
2022-11-16T03:54:46.777Z,69.08
2022-11-16T03:57:13.004Z,69.62
2022-11-16T03:59:39.357Z,69.67
2022-11-16T04:02:05.589Z,69.17
2022-11-16T04:04:31.825Z,69.16
2022-11-16T04:06:58.123Z,69.57
2022-11-16T04:09:24.431Z,69.51
2022-11-16T04:11:50.659Z,69.08
2022-11-16T04:14:16.916Z,68.98
2022-11-16T04:16:43.172Z,68.92
2022-11-16T04:19:09.432Z,68.80
2022-11-16T04:21:35.719Z,68.72
2022-11-16T04:24:01.970Z,68.38
2022-11-16T04:26:28.209Z,69.42
2022-11-16T04:28:54.466Z,68.37
2022-11-16T04:31:20.713Z,68.85
2022-11-16T04:33:46.978Z,68.90
2022-11-16T04:36:17.887Z,68.84
2022-11-16T04:38:46.581Z,68.10
2022-11-16T04:41:12.869Z,68.52
2022-11-16T04:43:39.213Z,67.70
2022-11-16T04:46:05.454Z,68.04
2022-11-16T04:48:31.993Z,68.13
2022-11-16T04:50:58.466Z,68.38
2022-11-16T04:53:24.711Z,67.94
2022-11-16T04:55:50.939Z,67.74
2022-11-16T04:58:17.278Z,67.73
2022-11-16T05:00:43.762Z,68.12
2022-11-16T05:03:10.127Z,68.44
2022-11-16T05:05:36.395Z,67.43
2022-11-16T05:08:02.721Z,67.77
2022-11-16T05:10:28.970Z,68.34
2022-11-16T05:12:55.234Z,67.82
2022-11-16T05:15:21.480Z,68.02
2022-11-16T05:17:47.725Z,67.71
2022-11-16T05:20:13.999Z,68.18
2022-11-16T05:22:41.342Z,68.91
2022-11-16T05:25:07.598Z,68.40
2022-11-16T05:27:33.851Z,68.75
2022-11-16T05:30:00.155Z,68.64
2022-11-16T05:32:26.416Z,68.24
2022-11-16T05:34:52.715Z,68.96
2022-11-16T05:37:18.951Z,68.53
2022-11-16T05:39:45.229Z,68.18
2022-11-16T05:42:11.466Z,68.49
2022-11-16T05:44:37.712Z,68.68
2022-11-16T05:47:03.965Z,68.59
2022-11-16T05:49:30.203Z,69.04
2022-11-16T05:51:56.445Z,68.72
2022-11-16T05:54:22.694Z,69.14
2022-11-16T05:56:48.921Z,68.16
2022-11-16T05:59:16.648Z,68.03
2022-11-16T06:01:43.034Z,68.80
2022-11-16T06:04:09.299Z,68.36
2022-11-16T06:06:35.554Z,68.63
2022-11-16T06:09:01.797Z,68.03
2022-11-16T06:11:32.716Z,67.74
2022-11-16T06:14:01.723Z,67.60
2022-11-16T06:16:27.964Z,68.41
2022-11-16T06:18:54.202Z,68.40
2022-11-16T06:21:20.492Z,68.39
2022-11-16T06:23:46.730Z,67.96
2022-11-16T06:26:13.032Z,67.43
2022-11-16T06:28:39.294Z,67.91
2022-11-16T06:31:05.531Z,67.02
2022-11-16T06:33:33.701Z,67.74
2022-11-16T06:36:00.190Z,67.51
2022-11-16T06:38:26.429Z,66.24
2022-11-16T06:40:52.745Z,67.14
2022-11-16T06:43:18.977Z,66.22
2022-11-16T06:45:45.320Z,65.88
2022-11-16T06:48:11.583Z,65.33
2022-11-16T06:50:37.818Z,65.76
2022-11-16T06:53:04.068Z,66.71
2022-11-16T06:55:30.306Z,66.30
2022-11-16T06:57:56.551Z,66.15
2022-11-16T07:00:22.822Z,66.26
2022-11-16T07:02:49.052Z,65.81
2022-11-16T07:05:15.319Z,66.42
2022-11-16T07:07:41.594Z,66.23
2022-11-16T07:10:07.868Z,66.25
2022-11-16T07:12:34.110Z,66.01
2022-11-16T07:15:00.361Z,65.48
2022-11-16T07:17:26.634Z,65.88
2022-11-16T07:19:52.902Z,65.94
2022-11-16T07:22:19.163Z,65.91
2022-11-16T07:24:45.410Z,65.15
2022-11-16T07:27:11.667Z,65.21
2022-11-16T07:29:37.925Z,64.84
2022-11-16T07:32:04.175Z,65.14
2022-11-16T07:34:30.415Z,64.58
2022-11-16T07:36:56.691Z,65.30
2022-11-16T07:39:22.923Z,64.54
2022-11-16T07:41:49.165Z,65.61
2022-11-16T07:44:15.427Z,65.52
2022-11-16T07:46:47.220Z,66.27
2022-11-16T07:49:13.958Z,66.27
2022-11-16T07:51:40.227Z,66.78
2022-11-16T07:54:06.497Z,66.89
2022-11-16T07:56:32.779Z,67.72
2022-11-16T07:58:59.091Z,67.73
2022-11-16T08:01:25.377Z,68.21
2022-11-16T08:03:51.643Z,67.65
2022-11-16T08:06:17.907Z,67.50
2022-11-16T08:08:44.182Z,68.35
2022-11-16T08:11:10.471Z,68.64
2022-11-16T08:13:36.728Z,68.36
2022-11-16T08:16:03.058Z,67.27
2022-11-16T08:18:29.309Z,67.81
2022-11-16T08:20:57.493Z,67.63
2022-11-16T08:23:23.763Z,67.26
2022-11-16T08:25:50.019Z,67.41
2022-11-16T08:28:16.293Z,66.71
2022-11-16T08:30:42.546Z,67.06
2022-11-16T08:33:08.807Z,67.25
2022-11-16T08:35:35.084Z,67.38
2022-11-16T08:38:01.372Z,66.92
2022-11-16T08:40:27.622Z,67.44
2022-11-16T08:42:53.877Z,67.31
2022-11-16T08:45:20.138Z,66.28
2022-11-16T08:47:46.395Z,67.15
2022-11-16T08:50:12.683Z,67.33
2022-11-16T08:52:38.971Z,67.19
2022-11-16T08:55:05.252Z,67.19
2022-11-16T08:57:31.525Z,67.53
2022-11-16T08:59:57.801Z,67.28
2022-11-16T09:02:24.056Z,67.49
2022-11-16T09:04:50.325Z,67.42
2022-11-16T09:07:16.654Z,66.99
2022-11-16T09:09:42.931Z,67.10
2022-11-16T09:12:09.214Z,67.35
2022-11-16T09:14:35.475Z,67.49
2022-11-16T09:17:01.743Z,67.14
2022-11-16T09:19:28.048Z,67.24
2022-11-16T09:21:54.302Z,66.85
2022-11-16T09:24:20.573Z,65.90
2022-11-16T09:26:46.940Z,66.30
2022-11-16T09:29:13.220Z,65.00
2022-11-16T09:31:39.465Z,65.26
2022-11-16T09:34:05.779Z,65.07
2022-11-16T09:36:32.021Z,65.10
2022-11-16T09:41:44.564Z,64.67
2022-11-16T09:44:10.836Z,65.54
2022-11-16T09:46:37.078Z,65.23
2022-11-16T09:49:03.370Z,64.98
2022-11-16T09:51:29.630Z,65.07
2022-11-16T09:53:55.957Z,65.25
2022-11-16T09:56:22.717Z,64.52
2022-11-16T09:58:49.079Z,64.62
2022-11-16T10:01:15.358Z,63.99
2022-11-16T10:03:41.694Z,64.73
2022-11-16T10:06:07.934Z,65.31
2022-11-16T10:08:34.446Z,65.38
2022-11-16T10:11:00.969Z,65.47
2022-11-16T10:13:27.211Z,65.00
2022-11-16T10:15:53.559Z,63.96
2022-11-16T10:18:19.865Z,63.02
2022-11-16T10:20:46.097Z,63.33
2022-11-16T10:23:12.346Z,63.46
2022-11-16T10:25:38.615Z,62.58
2022-11-16T10:28:04.878Z,63.51
2022-11-16T10:30:31.142Z,62.69
2022-11-16T10:32:57.382Z,62.07
2022-11-16T10:35:23.639Z,62.55
2022-11-16T10:37:49.905Z,63.06
2022-11-16T10:40:16.174Z,62.22
2022-11-16T10:42:42.421Z,62.36
2022-11-16T10:45:08.711Z,62.40
2022-11-16T10:47:35.054Z,62.36
2022-11-16T10:50:01.353Z,63.18
2022-11-16T10:52:27.587Z,63.65
2022-11-16T10:54:53.852Z,64.33
2022-11-16T10:57:20.132Z,64.40
2022-11-16T10:59:46.388Z,64.50
2022-11-16T11:02:12.664Z,63.92
2022-11-16T11:04:38.897Z,63.49
2022-11-16T11:07:05.165Z,63.11
2022-11-16T11:09:31.432Z,62.90
2022-11-16T11:11:57.749Z,62.96
2022-11-16T11:14:23.988Z,63.25
2022-11-16T11:16:50.234Z,63.02
2022-11-16T11:19:16.507Z,63.05
2022-11-16T11:21:42.839Z,63.36
2022-11-16T11:24:42.264Z,62.10
2022-11-16T11:26:55.404Z,63.59
2022-11-16T11:29:21.658Z,63.31
2022-11-16T11:31:47.943Z,63.15
2022-11-16T11:34:14.280Z,63.92
2022-11-16T11:36:40.538Z,63.57
2022-11-16T11:39:06.807Z,62.34
2022-11-16T11:41:33.089Z,62.08
2022-11-16T11:43:59.352Z,61.80
2022-11-16T11:46:35.862Z,62.14
2022-11-16T11:49:11.916Z,61.58
2022-11-16T11:51:38.161Z,61.03
2022-11-16T11:54:04.444Z,61.03
2022-11-16T11:56:30.734Z,61.34
2022-11-16T11:58:56.976Z,60.59
2022-11-16T12:01:25.578Z,60.14
2022-11-16T12:03:52.143Z,60.00
2022-11-16T12:06:18.402Z,60.30
2022-11-16T12:08:44.758Z,60.38
2022-11-16T12:11:10.999Z,59.99
2022-11-16T12:13:37.504Z,59.97
2022-11-16T12:16:03.926Z,58.41
2022-11-16T12:18:30.198Z,56.85
2022-11-16T12:20:56.442Z,56.54
2022-11-16T12:23:22.694Z,54.58
2022-11-16T12:25:48.985Z,55.36
2022-11-16T12:28:15.248Z,54.94
2022-11-16T12:30:41.532Z,55.13
2022-11-16T12:33:07.772Z,54.44
2022-11-16T12:35:34.015Z,53.06
2022-11-16T12:38:00.320Z,53.65
2022-11-16T12:40:26.602Z,54.35
2022-11-16T12:42:52.889Z,55.30
2022-11-16T12:45:19.241Z,54.22
2022-11-16T12:47:45.520Z,54.27
2022-11-16T12:50:11.821Z,53.89
2022-11-16T12:52:38.099Z,52.20
2022-11-16T12:55:25.443Z,52.83
2022-11-16T12:57:50.631Z,52.73
2022-11-16T13:00:16.868Z,52.88
2022-11-16T13:02:43.104Z,51.40
2022-11-16T13:05:09.400Z,52.75
2022-11-16T13:07:35.688Z,51.84
2022-11-16T13:10:02.120Z,52.71
2022-11-16T13:12:28.477Z,53.03
2022-11-16T13:14:54.704Z,53.40
2022-11-16T13:17:21.060Z,54.24
2022-11-16T13:19:47.429Z,53.92
2022-11-16T13:22:13.680Z,53.57
2022-11-16T13:24:39.951Z,52.63
2022-11-16T13:27:06.235Z,52.51
2022-11-16T13:29:32.530Z,51.80
2022-11-16T13:31:58.814Z,51.89
2022-11-16T13:34:25.069Z,52.15
2022-11-16T13:36:51.334Z,52.61
2022-11-16T13:39:22.293Z,51.54
2022-11-16T13:41:49.332Z,52.29
2022-11-16T13:44:15.618Z,52.18
2022-11-16T13:46:55.247Z,52.42
2022-11-16T13:49:22.308Z,50.07
2022-11-16T13:51:48.570Z,51.26
2022-11-16T13:57:01.055Z,50.85
2022-11-16T13:59:27.294Z,50.71
2022-11-16T14:01:53.544Z,50.40
2022-11-16T14:04:19.801Z,51.33
2022-11-16T14:06:46.075Z,51.01
2022-11-16T14:09:12.309Z,51.09
2022-11-16T14:11:38.559Z,50.56
2022-11-16T14:14:04.872Z,51.19
2022-11-16T14:16:31.152Z,51.24
2022-11-16T14:18:57.420Z,50.90
2022-11-16T14:21:23.667Z,49.83
2022-11-16T14:23:49.918Z,48.97
2022-11-16T14:26:16.166Z,49.31
2022-11-16T14:28:42.416Z,48.42
2022-11-16T14:31:08.694Z,48.63
2022-11-16T14:33:35.270Z,50.40
2022-11-16T14:36:01.715Z,50.69
2022-11-16T14:38:27.967Z,50.92
2022-11-16T14:40:59.160Z,51.22
2022-11-16T14:43:26.066Z,51.46
2022-11-16T14:45:52.332Z,51.12
2022-11-16T14:48:18.568Z,50.91
2022-11-16T14:50:44.847Z,51.10
2022-11-16T14:53:11.139Z,50.67
2022-11-16T14:55:37.400Z,50.06
2022-11-16T14:58:03.746Z,49.96
2022-11-16T15:00:30.035Z,49.26
2022-11-16T15:03:02.142Z,50.59
2022-11-16T15:05:28.979Z,50.05
2022-11-16T15:07:55.246Z,50.43
2022-11-16T15:10:21.516Z,50.35
2022-11-16T15:12:47.789Z,51.56
2022-11-16T15:15:14.067Z,51.94
2022-11-16T15:17:40.340Z,51.11
2022-11-16T15:20:06.686Z,51.53
2022-11-16T15:22:32.984Z,50.70
2022-11-16T15:24:59.889Z,51.28
2022-11-16T15:27:26.198Z,51.20
2022-11-16T15:29:52.491Z,50.99
2022-11-16T15:32:18.729Z,51.02
2022-11-16T15:34:44.986Z,51.11
2022-11-16T15:37:11.291Z,51.29
2022-11-16T15:39:37.582Z,51.53
2022-11-16T15:42:04.468Z,51.10
2022-11-16T15:44:30.798Z,51.40
2022-11-16T15:46:57.055Z,51.15
2022-11-16T15:49:23.287Z,51.28
2022-11-16T15:51:49.536Z,51.64
2022-11-16T15:54:15.829Z,52.08
2022-11-16T15:56:42.084Z,51.53
2022-11-16T15:59:08.329Z,51.94
2022-11-16T16:01:34.745Z,51.92
2022-11-16T16:04:01.016Z,52.17
2022-11-16T16:06:27.270Z,52.19
2022-11-16T16:08:53.563Z,52.48
2022-11-16T16:11:25.461Z,51.37
2022-11-16T16:13:52.983Z,51.34
2022-11-16T16:16:19.267Z,51.18
2022-11-16T16:18:45.506Z,50.47
2022-11-16T16:21:11.744Z,50.61
2022-11-16T16:23:37.985Z,50.97
2022-11-16T16:26:04.329Z,51.30
2022-11-16T16:28:30.587Z,51.26
2022-11-16T16:30:56.835Z,52.37
2022-11-16T16:33:23.082Z,51.78
2022-11-16T16:35:49.316Z,51.73
2022-11-16T16:38:15.626Z,51.44
2022-11-16T16:40:41.857Z,52.56
2022-11-16T16:43:08.094Z,52.53
2022-11-16T16:45:34.330Z,53.51
2022-11-16T16:48:00.566Z,54.16
2022-11-16T16:50:26.798Z,54.13
2022-11-16T16:52:53.051Z,54.10
2022-11-16T16:55:19.358Z,54.15
2022-11-16T16:57:45.600Z,54.66
2022-11-16T17:00:11.856Z,54.44
2022-11-16T17:02:38.129Z,53.91
2022-11-16T17:05:04.378Z,53.59
2022-11-16T17:07:30.684Z,54.62
2022-11-16T17:09:57.090Z,54.76
2022-11-16T17:12:23.319Z,54.42
2022-11-16T17:14:49.559Z,54.97
2022-11-16T17:17:15.805Z,53.79
2022-11-16T17:19:42.098Z,53.40
2022-11-16T17:22:08.369Z,54.42
2022-11-16T17:24:34.634Z,54.01
2022-11-16T17:27:00.888Z,54.54
2022-11-16T17:29:27.135Z,55.13
2022-11-16T17:31:53.443Z,55.12
2022-11-16T17:34:19.700Z,55.86
2022-11-16T17:36:45.950Z,56.20
2022-11-16T17:39:12.194Z,56.29
2022-11-16T17:41:38.425Z,56.85
2022-11-16T17:44:04.657Z,57.22
2022-11-16T17:46:30.905Z,56.99
2022-11-16T17:48:57.155Z,57.59
2022-11-16T17:51:23.396Z,57.12
2022-11-16T17:53:49.640Z,57.73
2022-11-16T17:56:15.893Z,57.92
2022-11-16T17:58:42.150Z,57.85
2022-11-16T18:01:08.504Z,58.23
2022-11-16T18:03:35.007Z,58.54
2022-11-16T18:06:01.509Z,58.56
2022-11-16T18:08:27.774Z,58.45
2022-11-16T18:10:54.017Z,58.77
2022-11-16T18:13:20.284Z,59.33
2022-11-16T18:15:46.606Z,58.70
2022-11-16T18:18:12.853Z,59.37
2022-11-16T18:20:39.106Z,58.89
2022-11-16T18:23:05.471Z,59.15
2022-11-16T18:25:31.739Z,59.59
2022-11-16T18:27:58.081Z,59.26
2022-11-16T18:30:24.331Z,59.87
2022-11-16T18:32:50.591Z,59.98
2022-11-16T18:35:16.851Z,59.94
2022-11-16T18:37:43.117Z,60.57
2022-11-16T18:40:09.370Z,60.49
2022-11-16T18:42:35.638Z,60.82
2022-11-16T18:45:01.881Z,60.92
2022-11-16T18:47:28.130Z,60.53
2022-11-16T18:49:54.484Z,61.46
2022-11-16T18:52:20.757Z,60.64
2022-11-16T18:54:47.010Z,60.58
2022-11-16T18:57:13.279Z,60.99
2022-11-16T18:59:39.541Z,60.64
2022-11-16T19:02:05.808Z,60.88
2022-11-16T19:04:32.100Z,61.53
2022-11-16T19:06:58.386Z,61.42
2022-11-16T19:09:24.703Z,61.58
2022-11-16T19:11:51.040Z,61.06
2022-11-16T19:14:17.314Z,61.48
2022-11-16T19:16:51.168Z,61.14
2022-11-16T19:19:20.466Z,61.01
2022-11-16T19:21:46.927Z,61.22
2022-11-16T19:24:13.254Z,61.05
2022-11-16T19:26:39.554Z,61.36
2022-11-16T19:29:05.815Z,61.54
2022-11-16T19:31:32.068Z,61.86
2022-11-16T19:33:58.328Z,60.96
2022-11-16T19:36:24.635Z,61.59
2022-11-16T19:38:50.965Z,60.97
2022-11-16T19:41:17.235Z,61.59
2022-11-16T19:43:43.495Z,60.96
2022-11-16T19:46:09.794Z,60.81
2022-11-16T19:48:36.120Z,61.23
2022-11-16T19:51:02.397Z,61.05
2022-11-16T19:53:28.702Z,61.11
2022-11-16T19:55:54.960Z,61.37
2022-11-16T19:58:21.216Z,61.34
2022-11-16T20:00:47.576Z,61.13
2022-11-16T20:03:13.925Z,60.54
2022-11-16T20:05:40.169Z,60.61
2022-11-16T20:08:06.478Z,60.37
2022-11-16T20:10:32.759Z,60.40
2022-11-16T20:12:59.096Z,59.75
2022-11-16T20:15:25.354Z,59.62
2022-11-16T20:17:51.640Z,59.22
2022-11-16T20:20:17.987Z,59.11
2022-11-16T20:22:44.283Z,59.44
2022-11-16T20:25:10.535Z,58.98
2022-11-16T20:27:36.784Z,59.81
2022-11-16T20:30:09.113Z,58.96
2022-11-16T20:32:35.914Z,59.12
2022-11-16T20:35:02.218Z,59.74
2022-11-16T20:37:28.677Z,59.85
2022-11-16T20:39:54.930Z,59.82
2022-11-16T20:42:21.231Z,59.76
2022-11-16T20:44:47.497Z,58.65
2022-11-16T20:47:13.876Z,59.09
2022-11-16T20:49:40.116Z,58.18
2022-11-16T20:52:06.463Z,58.09
2022-11-16T20:54:32.773Z,58.22
2022-11-16T20:56:59.071Z,58.25
2022-11-16T20:59:25.374Z,58.46
2022-11-16T21:01:51.661Z,58.61
2022-11-16T21:04:17.964Z,58.10
2022-11-16T21:06:44.221Z,58.60
2022-11-16T21:09:10.464Z,57.78
2022-11-16T21:11:36.787Z,57.88
2022-11-16T21:14:03.048Z,57.95
2022-11-16T21:16:29.384Z,57.75
2022-11-16T21:18:55.680Z,57.50
2022-11-16T21:21:21.957Z,57.78
2022-11-16T21:23:48.243Z,57.50
2022-11-16T21:26:14.528Z,58.15
2022-11-16T21:28:40.806Z,57.85
2022-11-16T21:31:07.061Z,57.96
2022-11-16T21:33:33.591Z,58.09
2022-11-16T21:36:00.103Z,58.06
2022-11-16T21:38:26.347Z,58.15
2022-11-16T21:40:52.664Z,57.94
2022-11-16T21:43:18.952Z,57.61
2022-11-16T21:45:45.199Z,58.44
2022-11-16T21:48:11.458Z,57.23
2022-11-16T21:50:37.690Z,58.09
2022-11-16T21:53:03.925Z,58.08
2022-11-16T21:55:30.205Z,57.37
2022-11-16T21:57:56.453Z,57.13
2022-11-16T22:00:22.694Z,57.20
2022-11-16T22:02:48.952Z,57.97
2022-11-16T22:05:15.186Z,57.53
2022-11-16T22:07:41.434Z,58.10
2022-11-16T22:10:07.695Z,57.81
2022-11-16T22:12:33.971Z,58.53
2022-11-16T22:15:00.217Z,58.38
2022-11-16T22:17:26.491Z,58.54
2022-11-16T22:19:52.742Z,58.97
2022-11-16T22:22:19.002Z,59.42
2022-11-16T22:24:45.272Z,59.84
2022-11-16T22:27:11.529Z,59.32
2022-11-16T22:29:37.776Z,58.97
2022-11-16T22:32:04.032Z,58.55
2022-11-16T22:34:30.324Z,57.96
2022-11-16T22:36:56.565Z,58.52
2022-11-16T22:39:22.819Z,58.80
2022-11-16T22:41:49.095Z,58.60
2022-11-16T22:44:15.346Z,58.61
2022-11-16T22:46:41.598Z,58.34
2022-11-16T22:49:07.911Z,58.55
2022-11-16T22:51:34.186Z,58.40
2022-11-16T22:54:00.525Z,59.29
2022-11-16T22:56:26.790Z,58.35
2022-11-16T22:58:53.028Z,59.13
2022-11-16T23:01:19.316Z,58.89
2022-11-16T23:03:45.644Z,59.62
2022-11-16T23:06:11.941Z,58.99
2022-11-16T23:08:38.198Z,59.09
2022-11-16T23:11:04.437Z,60.24
2022-11-16T23:13:30.668Z,60.41
2022-11-16T23:15:56.923Z,60.27
2022-11-16T23:18:23.216Z,60.34
2022-11-16T23:20:49.481Z,60.28
2022-11-16T23:23:15.722Z,60.04
2022-11-16T23:25:41.968Z,59.39
2022-11-16T23:28:08.227Z,59.52
2022-11-16T23:30:34.553Z,59.11
2022-11-16T23:33:00.800Z,59.11
2022-11-16T23:35:27.784Z,58.99
2022-11-16T23:37:54.280Z,60.16
2022-11-16T23:40:20.534Z,59.49
2022-11-16T23:42:46.789Z,59.73
2022-11-16T23:45:13.050Z,59.66
2022-11-16T23:47:39.299Z,59.30
2022-11-16T23:50:05.618Z,58.51
2022-11-16T23:52:31.869Z,57.95
2022-11-16T23:54:58.141Z,58.62
2022-11-16T23:57:24.385Z,58.90
2022-11-16T23:59:50.658Z,58.96
